sensor_id;sensor_type;location;lat;lon;timestamp;P1;durP1;ratioP1;P2;durP2;ratioP2
22236;SDS011;11287;48.122;11.536;2023-05-14T00:02:05;19.45;;;13.85;;
22236;SDS011;11287;48.122;11.536;2023-05-14T00:04:31;20.95;;;15.65;;
22236;SDS011;11287;48.122;11.536;2023-05-14T00:06:56;20.80;;;14.77;;
22236;SDS011;11287;48.122;11.536;2023-05-14T00:09:22;19.77;;;13.88;;
22236;SDS011;11287;48.122;11.536;2023-05-14T00:11:48;18.17;;;13.38;;
22236;SDS011;11287;48.122;11.536;2023-05-14T00:14:13;18.98;;;14.45;;
22236;SDS011;11287;48.122;11.536;2023-05-14T00:16:38;17.85;;;14.07;;
22236;SDS011;11287;48.122;11.536;2023-05-14T00:19:03;18.55;;;13.35;;
22236;SDS011;11287;48.122;11.536;2023-05-14T00:21:29;19.58;;;13.30;;
22236;SDS011;11287;48.122;11.536;2023-05-14T00:23:55;19.40;;;13.57;;
22236;SDS011;11287;48.122;11.536;2023-05-14T00:26:21;19.88;;;14.07;;
22236;SDS011;11287;48.122;11.536;2023-05-14T00:28:46;17.52;;;14.00;;
22236;SDS011;11287;48.122;11.536;2023-05-14T00:31:12;18.52;;;14.07;;
22236;SDS011;11287;48.122;11.536;2023-05-14T00:33:38;23.55;;;14.95;;
22236;SDS011;11287;48.122;11.536;2023-05-14T00:36:03;20.90;;;15.20;;
22236;SDS011;11287;48.122;11.536;2023-05-14T00:38:28;20.42;;;15.15;;
22236;SDS011;11287;48.122;11.536;2023-05-14T00:40:54;20.38;;;13.73;;
22236;SDS011;11287;48.122;11.536;2023-05-14T00:43:20;18.90;;;14.38;;
22236;SDS011;11287;48.122;11.536;2023-05-14T00:45:46;24.95;;;15.15;;
22236;SDS011;11287;48.122;11.536;2023-05-14T00:48:14;19.33;;;15.32;;
22236;SDS011;11287;48.122;11.536;2023-05-14T00:50:39;21.08;;;15.48;;
22236;SDS011;11287;48.122;11.536;2023-05-14T00:53:05;21.83;;;15.43;;
22236;SDS011;11287;48.122;11.536;2023-05-14T00:55:34;19.95;;;14.55;;
22236;SDS011;11287;48.122;11.536;2023-05-14T00:58:00;23.42;;;15.07;;
22236;SDS011;11287;48.122;11.536;2023-05-14T01:00:25;18.80;;;13.85;;
22236;SDS011;11287;48.122;11.536;2023-05-14T01:02:50;20.73;;;14.13;;
22236;SDS011;11287;48.122;11.536;2023-05-14T01:05:16;19.70;;;14.40;;
22236;SDS011;11287;48.122;11.536;2023-05-14T01:07:46;22.02;;;14.85;;
22236;SDS011;11287;48.122;11.536;2023-05-14T01:10:19;19.13;;;14.40;;
22236;SDS011;11287;48.122;11.536;2023-05-14T01:15:25;19.50;;;14.60;;
22236;SDS011;11287;48.122;11.536;2023-05-14T01:17:55;19.88;;;14.45;;
22236;SDS011;11287;48.122;11.536;2023-05-14T01:20:24;25.17;;;15.80;;
22236;SDS011;11287;48.122;11.536;2023-05-14T01:22:50;24.23;;;15.60;;
22236;SDS011;11287;48.122;11.536;2023-05-14T01:25:15;22.67;;;15.43;;
22236;SDS011;11287;48.122;11.536;2023-05-14T01:27:56;23.95;;;16.05;;
22236;SDS011;11287;48.122;11.536;2023-05-14T01:30:35;22.00;;;15.50;;
22236;SDS011;11287;48.122;11.536;2023-05-14T01:33:04;23.23;;;15.57;;
22236;SDS011;11287;48.122;11.536;2023-05-14T01:35:30;25.00;;;15.95;;
22236;SDS011;11287;48.122;11.536;2023-05-14T01:38:00;23.98;;;16.70;;
22236;SDS011;11287;48.122;11.536;2023-05-14T01:40:26;25.67;;;16.42;;
22236;SDS011;11287;48.122;11.536;2023-05-14T01:42:52;22.45;;;15.82;;
22236;SDS011;11287;48.122;11.536;2023-05-14T01:45:21;23.92;;;16.48;;
22236;SDS011;11287;48.122;11.536;2023-05-14T01:47:47;22.92;;;16.02;;
22236;SDS011;11287;48.122;11.536;2023-05-14T01:50:12;25.90;;;17.10;;
22236;SDS011;11287;48.122;11.536;2023-05-14T01:52:38;23.35;;;15.18;;
22236;SDS011;11287;48.122;11.536;2023-05-14T01:55:03;21.17;;;14.82;;
22236;SDS011;11287;48.122;11.536;2023-05-14T01:57:29;22.05;;;14.77;;
22236;SDS011;11287;48.122;11.536;2023-05-14T01:59:55;20.45;;;14.70;;
22236;SDS011;11287;48.122;11.536;2023-05-14T02:02:20;21.63;;;14.05;;
22236;SDS011;11287;48.122;11.536;2023-05-14T02:04:45;18.88;;;13.48;;
22236;SDS011;11287;48.122;11.536;2023-05-14T02:07:11;20.50;;;14.77;;
22236;SDS011;11287;48.122;11.536;2023-05-14T02:09:36;23.92;;;16.40;;
22236;SDS011;11287;48.122;11.536;2023-05-14T02:12:01;22.17;;;15.30;;
22236;SDS011;11287;48.122;11.536;2023-05-14T02:14:27;23.35;;;15.50;;
22236;SDS011;11287;48.122;11.536;2023-05-14T02:16:52;23.30;;;15.43;;
22236;SDS011;11287;48.122;11.536;2023-05-14T02:19:17;25.15;;;15.43;;
22236;SDS011;11287;48.122;11.536;2023-05-14T02:21:43;25.33;;;15.93;;
22236;SDS011;11287;48.122;11.536;2023-05-14T02:24:08;23.00;;;15.35;;
22236;SDS011;11287;48.122;11.536;2023-05-14T02:26:33;24.00;;;15.68;;
22236;SDS011;11287;48.122;11.536;2023-05-14T02:28:59;24.80;;;15.52;;
22236;SDS011;11287;48.122;11.536;2023-05-14T02:31:24;24.15;;;15.68;;
22236;SDS011;11287;48.122;11.536;2023-05-14T02:33:52;25.58;;;16.52;;
22236;SDS011;11287;48.122;11.536;2023-05-14T02:36:17;25.75;;;16.25;;
22236;SDS011;11287;48.122;11.536;2023-05-14T02:38:42;25.85;;;15.57;;
22236;SDS011;11287;48.122;11.536;2023-05-14T02:41:08;28.67;;;16.98;;
22236;SDS011;11287;48.122;11.536;2023-05-14T02:43:33;26.83;;;17.25;;
22236;SDS011;11287;48.122;11.536;2023-05-14T02:45:58;32.38;;;18.38;;
22236;SDS011;11287;48.122;11.536;2023-05-14T02:48:23;25.23;;;16.77;;
22236;SDS011;11287;48.122;11.536;2023-05-14T02:50:50;28.55;;;18.35;;
22236;SDS011;11287;48.122;11.536;2023-05-14T02:53:16;28.52;;;16.73;;
22236;SDS011;11287;48.122;11.536;2023-05-14T02:55:41;28.85;;;17.92;;
22236;SDS011;11287;48.122;11.536;2023-05-14T02:58:06;27.55;;;17.10;;
22236;SDS011;11287;48.122;11.536;2023-05-14T03:00:32;29.52;;;17.38;;
22236;SDS011;11287;48.122;11.536;2023-05-14T03:02:57;28.13;;;17.00;;
22236;SDS011;11287;48.122;11.536;2023-05-14T03:05:22;25.98;;;17.10;;
22236;SDS011;11287;48.122;11.536;2023-05-14T03:07:49;28.60;;;17.73;;
22236;SDS011;11287;48.122;11.536;2023-05-14T03:10:15;28.38;;;18.30;;
22236;SDS011;11287;48.122;11.536;2023-05-14T03:12:40;29.88;;;18.20;;
22236;SDS011;11287;48.122;11.536;2023-05-14T03:15:06;24.77;;;18.02;;
22236;SDS011;11287;48.122;11.536;2023-05-14T03:17:32;25.75;;;16.58;;
22236;SDS011;11287;48.122;11.536;2023-05-14T03:19:57;27.20;;;17.05;;
22236;SDS011;11287;48.122;11.536;2023-05-14T03:22:23;24.67;;;16.42;;
22236;SDS011;11287;48.122;11.536;2023-05-14T03:24:48;27.35;;;16.88;;
22236;SDS011;11287;48.122;11.536;2023-05-14T03:27:13;25.63;;;16.58;;
22236;SDS011;11287;48.122;11.536;2023-05-14T03:29:39;27.17;;;16.85;;
22236;SDS011;11287;48.122;11.536;2023-05-14T03:32:04;25.38;;;16.90;;
22236;SDS011;11287;48.122;11.536;2023-05-14T03:34:30;28.08;;;16.92;;
22236;SDS011;11287;48.122;11.536;2023-05-14T03:36:55;28.63;;;17.88;;
22236;SDS011;11287;48.122;11.536;2023-05-14T03:39:21;26.40;;;17.50;;
22236;SDS011;11287;48.122;11.536;2023-05-14T03:41:46;27.38;;;17.17;;
22236;SDS011;11287;48.122;11.536;2023-05-14T03:44:12;31.48;;;18.55;;
22236;SDS011;11287;48.122;11.536;2023-05-14T03:46:37;29.73;;;18.45;;
22236;SDS011;11287;48.122;11.536;2023-05-14T03:49:03;26.95;;;17.88;;
22236;SDS011;11287;48.122;11.536;2023-05-14T03:51:28;25.38;;;16.52;;
22236;SDS011;11287;48.122;11.536;2023-05-14T03:53:53;27.08;;;17.02;;
22236;SDS011;11287;48.122;11.536;2023-05-14T03:56:19;29.85;;;17.35;;
22236;SDS011;11287;48.122;11.536;2023-05-14T03:58:44;25.92;;;16.88;;
22236;SDS011;11287;48.122;11.536;2023-05-14T04:01:09;27.50;;;16.85;;
22236;SDS011;11287;48.122;11.536;2023-05-14T04:03:35;25.17;;;16.33;;
22236;SDS011;11287;48.122;11.536;2023-05-14T04:06:00;26.85;;;16.67;;
22236;SDS011;11287;48.122;11.536;2023-05-14T04:08:25;25.30;;;15.85;;
22236;SDS011;11287;48.122;11.536;2023-05-14T04:10:51;31.23;;;16.95;;
22236;SDS011;11287;48.122;11.536;2023-05-14T04:13:16;26.25;;;16.67;;
22236;SDS011;11287;48.122;11.536;2023-05-14T04:15:41;27.67;;;17.98;;
22236;SDS011;11287;48.122;11.536;2023-05-14T04:18:07;24.45;;;16.23;;
22236;SDS011;11287;48.122;11.536;2023-05-14T04:20:32;28.42;;;17.60;;
22236;SDS011;11287;48.122;11.536;2023-05-14T04:22:57;30.05;;;18.17;;
22236;SDS011;11287;48.122;11.536;2023-05-14T04:25:23;25.55;;;17.02;;
22236;SDS011;11287;48.122;11.536;2023-05-14T04:27:48;26.88;;;16.25;;
22236;SDS011;11287;48.122;11.536;2023-05-14T04:30:13;24.17;;;15.63;;
22236;SDS011;11287;48.122;11.536;2023-05-14T04:32:39;26.50;;;16.15;;
22236;SDS011;11287;48.122;11.536;2023-05-14T04:35:04;23.65;;;15.70;;
22236;SDS011;11287;48.122;11.536;2023-05-14T04:37:32;23.65;;;14.73;;
22236;SDS011;11287;48.122;11.536;2023-05-14T04:39:57;25.48;;;15.93;;
22236;SDS011;11287;48.122;11.536;2023-05-14T04:42:22;24.98;;;15.65;;
22236;SDS011;11287;48.122;11.536;2023-05-14T04:44:48;24.60;;;16.33;;
22236;SDS011;11287;48.122;11.536;2023-05-14T04:47:13;25.25;;;15.45;;
22236;SDS011;11287;48.122;11.536;2023-05-14T04:49:39;26.58;;;16.27;;
22236;SDS011;11287;48.122;11.536;2023-05-14T04:52:05;22.80;;;15.10;;
22236;SDS011;11287;48.122;11.536;2023-05-14T04:54:30;26.08;;;15.07;;
22236;SDS011;11287;48.122;11.536;2023-05-14T04:56:55;24.80;;;15.73;;
22236;SDS011;11287;48.122;11.536;2023-05-14T04:59:21;25.35;;;16.30;;
22236;SDS011;11287;48.122;11.536;2023-05-14T05:01:46;28.08;;;16.55;;
22236;SDS011;11287;48.122;11.536;2023-05-14T05:04:11;27.88;;;18.38;;
22236;SDS011;11287;48.122;11.536;2023-05-14T05:06:37;27.27;;;17.20;;
22236;SDS011;11287;48.122;11.536;2023-05-14T05:09:02;29.30;;;17.90;;
22236;SDS011;11287;48.122;11.536;2023-05-14T05:11:28;32.05;;;17.75;;
22236;SDS011;11287;48.122;11.536;2023-05-14T05:13:53;26.20;;;17.25;;
22236;SDS011;11287;48.122;11.536;2023-05-14T05:16:19;28.30;;;17.13;;
22236;SDS011;11287;48.122;11.536;2023-05-14T05:18:44;30.17;;;17.80;;
22236;SDS011;11287;48.122;11.536;2023-05-14T05:21:09;28.35;;;17.80;;
22236;SDS011;11287;48.122;11.536;2023-05-14T05:23:35;29.38;;;17.67;;
22236;SDS011;11287;48.122;11.536;2023-05-14T05:26:00;27.38;;;16.88;;
22236;SDS011;11287;48.122;11.536;2023-05-14T05:28:25;27.15;;;16.65;;
22236;SDS011;11287;48.122;11.536;2023-05-14T05:30:50;30.55;;;17.60;;
22236;SDS011;11287;48.122;11.536;2023-05-14T05:33:16;28.55;;;18.45;;
22236;SDS011;11287;48.122;11.536;2023-05-14T05:35:41;31.77;;;17.90;;
22236;SDS011;11287;48.122;11.536;2023-05-14T05:38:08;31.33;;;19.02;;
22236;SDS011;11287;48.122;11.536;2023-05-14T05:40:33;30.33;;;18.90;;
22236;SDS011;11287;48.122;11.536;2023-05-14T05:42:59;32.65;;;18.73;;
22236;SDS011;11287;48.122;11.536;2023-05-14T05:45:24;33.03;;;19.75;;
22236;SDS011;11287;48.122;11.536;2023-05-14T05:47:49;32.78;;;19.08;;
22236;SDS011;11287;48.122;11.536;2023-05-14T05:50:14;36.65;;;19.98;;
22236;SDS011;11287;48.122;11.536;2023-05-14T05:52:40;34.10;;;20.23;;
22236;SDS011;11287;48.122;11.536;2023-05-14T05:55:05;37.35;;;19.92;;
22236;SDS011;11287;48.122;11.536;2023-05-14T05:57:31;34.60;;;20.23;;
22236;SDS011;11287;48.122;11.536;2023-05-14T05:59:56;34.25;;;19.02;;
22236;SDS011;11287;48.122;11.536;2023-05-14T06:02:22;31.25;;;18.73;;
22236;SDS011;11287;48.122;11.536;2023-05-14T06:04:48;27.60;;;17.40;;
22236;SDS011;11287;48.122;11.536;2023-05-14T06:07:14;29.60;;;17.58;;
22236;SDS011;11287;48.122;11.536;2023-05-14T06:09:39;28.05;;;16.98;;
22236;SDS011;11287;48.122;11.536;2023-05-14T06:12:04;25.25;;;17.02;;
22236;SDS011;11287;48.122;11.536;2023-05-14T06:14:30;26.67;;;17.13;;
22236;SDS011;11287;48.122;11.536;2023-05-14T06:16:55;27.88;;;17.05;;
22236;SDS011;11287;48.122;11.536;2023-05-14T06:19:21;29.65;;;17.88;;
22236;SDS011;11287;48.122;11.536;2023-05-14T06:21:47;27.63;;;17.00;;
22236;SDS011;11287;48.122;11.536;2023-05-14T06:24:12;28.83;;;17.02;;
22236;SDS011;11287;48.122;11.536;2023-05-14T06:26:37;31.17;;;17.92;;
22236;SDS011;11287;48.122;11.536;2023-05-14T06:29:03;29.50;;;17.10;;
22236;SDS011;11287;48.122;11.536;2023-05-14T06:31:28;30.55;;;18.38;;
22236;SDS011;11287;48.122;11.536;2023-05-14T06:33:53;30.55;;;17.75;;
22236;SDS011;11287;48.122;11.536;2023-05-14T06:36:19;31.30;;;18.75;;
22236;SDS011;11287;48.122;11.536;2023-05-14T06:38:44;31.50;;;17.75;;
22236;SDS011;11287;48.122;11.536;2023-05-14T06:41:09;32.15;;;18.35;;
22236;SDS011;11287;48.122;11.536;2023-05-14T06:43:35;30.20;;;18.05;;
22236;SDS011;11287;48.122;11.536;2023-05-14T06:46:00;30.92;;;18.55;;
22236;SDS011;11287;48.122;11.536;2023-05-14T06:48:25;27.60;;;16.73;;
22236;SDS011;11287;48.122;11.536;2023-05-14T06:50:53;27.92;;;18.30;;
22236;SDS011;11287;48.122;11.536;2023-05-14T06:53:18;29.02;;;16.73;;
22236;SDS011;11287;48.122;11.536;2023-05-14T06:55:45;25.60;;;16.25;;
22236;SDS011;11287;48.122;11.536;2023-05-14T06:58:11;25.85;;;16.45;;
22236;SDS011;11287;48.122;11.536;2023-05-14T07:00:37;24.35;;;16.30;;
22236;SDS011;11287;48.122;11.536;2023-05-14T07:03:02;26.08;;;16.00;;
22236;SDS011;11287;48.122;11.536;2023-05-14T07:05:27;26.20;;;15.35;;
22236;SDS011;11287;48.122;11.536;2023-05-14T07:07:53;27.13;;;16.60;;
22236;SDS011;11287;48.122;11.536;2023-05-14T07:10:18;24.83;;;15.50;;
22236;SDS011;11287;48.122;11.536;2023-05-14T07:12:43;24.63;;;15.75;;
22236;SDS011;11287;48.122;11.536;2023-05-14T07:15:09;24.60;;;16.17;;
22236;SDS011;11287;48.122;11.536;2023-05-14T07:17:36;22.75;;;15.30;;
22236;SDS011;11287;48.122;11.536;2023-05-14T07:20:01;25.00;;;15.95;;
22236;SDS011;11287;48.122;11.536;2023-05-14T07:22:27;24.67;;;16.05;;
22236;SDS011;11287;48.122;11.536;2023-05-14T07:24:52;20.40;;;14.55;;
22236;SDS011;11287;48.122;11.536;2023-05-14T07:27:18;23.15;;;14.93;;
22236;SDS011;11287;48.122;11.536;2023-05-14T07:29:43;21.08;;;14.15;;
22236;SDS011;11287;48.122;11.536;2023-05-14T07:32:08;21.20;;;14.30;;
22236;SDS011;11287;48.122;11.536;2023-05-14T07:34:34;22.30;;;14.45;;
22236;SDS011;11287;48.122;11.536;2023-05-14T07:37:00;22.85;;;14.15;;
22236;SDS011;11287;48.122;11.536;2023-05-14T07:39:25;21.73;;;14.02;;
22236;SDS011;11287;48.122;11.536;2023-05-14T07:41:50;20.25;;;13.73;;
22236;SDS011;11287;48.122;11.536;2023-05-14T07:44:18;21.60;;;14.27;;
22236;SDS011;11287;48.122;11.536;2023-05-14T07:46:44;19.35;;;13.45;;
22236;SDS011;11287;48.122;11.536;2023-05-14T07:49:09;23.33;;;13.95;;
22236;SDS011;11287;48.122;11.536;2023-05-14T07:51:35;21.85;;;13.82;;
22236;SDS011;11287;48.122;11.536;2023-05-14T07:54:00;25.25;;;16.02;;
22236;SDS011;11287;48.122;11.536;2023-05-14T07:56:25;20.45;;;14.43;;
22236;SDS011;11287;48.122;11.536;2023-05-14T07:58:51;19.23;;;13.68;;
22236;SDS011;11287;48.122;11.536;2023-05-14T08:01:16;21.60;;;13.63;;
22236;SDS011;11287;48.122;11.536;2023-05-14T08:03:41;18.83;;;13.30;;
22236;SDS011;11287;48.122;11.536;2023-05-14T08:06:07;20.95;;;12.73;;
22236;SDS011;11287;48.122;11.536;2023-05-14T08:08:32;20.00;;;13.13;;
22236;SDS011;11287;48.122;11.536;2023-05-14T08:10:58;20.65;;;13.30;;
22236;SDS011;11287;48.122;11.536;2023-05-14T08:13:23;22.20;;;14.32;;
22236;SDS011;11287;48.122;11.536;2023-05-14T08:15:48;19.65;;;13.35;;
22236;SDS011;11287;48.122;11.536;2023-05-14T08:18:14;18.67;;;13.05;;
22236;SDS011;11287;48.122;11.536;2023-05-14T08:20:39;17.75;;;11.52;;
22236;SDS011;11287;48.122;11.536;2023-05-14T08:23:04;16.83;;;11.73;;
22236;SDS011;11287;48.122;11.536;2023-05-14T08:25:31;15.57;;;11.70;;
22236;SDS011;11287;48.122;11.536;2023-05-14T08:27:56;18.88;;;12.57;;
22236;SDS011;11287;48.122;11.536;2023-05-14T08:30:23;19.00;;;12.70;;
22236;SDS011;11287;48.122;11.536;2023-05-14T08:32:48;18.42;;;12.20;;
22236;SDS011;11287;48.122;11.536;2023-05-14T08:35:14;16.92;;;12.13;;
22236;SDS011;11287;48.122;11.536;2023-05-14T08:37:40;20.98;;;13.38;;
22236;SDS011;11287;48.122;11.536;2023-05-14T08:40:05;17.73;;;12.52;;
22236;SDS011;11287;48.122;11.536;2023-05-14T08:42:32;18.75;;;12.93;;
22236;SDS011;11287;48.122;11.536;2023-05-14T08:45:01;24.73;;;13.77;;
22236;SDS011;11287;48.122;11.536;2023-05-14T08:47:28;20.80;;;12.70;;
22236;SDS011;11287;48.122;11.536;2023-05-14T08:50:00;21.77;;;13.43;;
22236;SDS011;11287;48.122;11.536;2023-05-14T08:52:28;21.02;;;13.45;;
22236;SDS011;11287;48.122;11.536;2023-05-14T08:54:53;19.88;;;13.38;;
22236;SDS011;11287;48.122;11.536;2023-05-14T08:57:20;21.48;;;12.52;;
22236;SDS011;11287;48.122;11.536;2023-05-14T08:59:48;17.90;;;11.45;;
22236;SDS011;11287;48.122;11.536;2023-05-14T09:02:14;20.42;;;12.43;;
22236;SDS011;11287;48.122;11.536;2023-05-14T09:04:41;21.52;;;12.90;;
22236;SDS011;11287;48.122;11.536;2023-05-14T09:07:07;17.05;;;12.70;;
22236;SDS011;11287;48.122;11.536;2023-05-14T09:09:32;19.77;;;12.00;;
22236;SDS011;11287;48.122;11.536;2023-05-14T09:11:57;20.63;;;12.52;;
22236;SDS011;11287;48.122;11.536;2023-05-14T09:14:23;19.50;;;12.45;;
22236;SDS011;11287;48.122;11.536;2023-05-14T09:16:49;23.27;;;14.75;;
22236;SDS011;11287;48.122;11.536;2023-05-14T09:19:14;19.35;;;13.85;;
22236;SDS011;11287;48.122;11.536;2023-05-14T09:21:43;16.77;;;11.50;;
22236;SDS011;11287;48.122;11.536;2023-05-14T09:24:09;19.63;;;12.50;;
22236;SDS011;11287;48.122;11.536;2023-05-14T09:26:43;16.42;;;12.02;;
22236;SDS011;11287;48.122;11.536;2023-05-14T09:29:09;19.23;;;12.40;;
22236;SDS011;11287;48.122;11.536;2023-05-14T09:31:34;20.65;;;13.15;;
22236;SDS011;11287;48.122;11.536;2023-05-14T09:34:01;19.70;;;13.27;;
22236;SDS011;11287;48.122;11.536;2023-05-14T09:36:26;20.10;;;12.98;;
22236;SDS011;11287;48.122;11.536;2023-05-14T09:38:55;17.42;;;11.77;;
22236;SDS011;11287;48.122;11.536;2023-05-14T09:41:20;18.38;;;11.98;;
22236;SDS011;11287;48.122;11.536;2023-05-14T09:43:46;17.00;;;12.23;;
22236;SDS011;11287;48.122;11.536;2023-05-14T09:46:12;17.25;;;11.77;;
22236;SDS011;11287;48.122;11.536;2023-05-14T09:48:37;15.50;;;10.93;;
22236;SDS011;11287;48.122;11.536;2023-05-14T09:51:03;18.38;;;10.60;;
22236;SDS011;11287;48.122;11.536;2023-05-14T09:53:29;13.57;;;9.85;;
22236;SDS011;11287;48.122;11.536;2023-05-14T09:55:55;14.35;;;10.30;;
22236;SDS011;11287;48.122;11.536;2023-05-14T09:58:20;14.38;;;10.10;;
22236;SDS011;11287;48.122;11.536;2023-05-14T10:00:45;15.00;;;10.77;;
22236;SDS011;11287;48.122;11.536;2023-05-14T10:03:12;15.05;;;10.75;;
22236;SDS011;11287;48.122;11.536;2023-05-14T10:05:39;15.35;;;10.40;;
22236;SDS011;11287;48.122;11.536;2023-05-14T10:08:17;16.90;;;10.00;;
22236;SDS011;11287;48.122;11.536;2023-05-14T10:10:45;11.90;;;9.80;;
22236;SDS011;11287;48.122;11.536;2023-05-14T10:13:13;12.93;;;9.85;;
22236;SDS011;11287;48.122;11.536;2023-05-14T10:18:30;12.50;;;9.27;;
22236;SDS011;11287;48.122;11.536;2023-05-14T10:20:56;12.13;;;9.15;;
22236;SDS011;11287;48.122;11.536;2023-05-14T10:23:27;11.15;;;8.80;;
22236;SDS011;11287;48.122;11.536;2023-05-14T10:25:53;11.52;;;8.85;;
22236;SDS011;11287;48.122;11.536;2023-05-14T10:28:19;11.57;;;8.75;;
22236;SDS011;11287;48.122;11.536;2023-05-14T10:30:48;10.13;;;8.45;;
22236;SDS011;11287;48.122;11.536;2023-05-14T10:33:14;13.10;;;9.60;;
22236;SDS011;11287;48.122;11.536;2023-05-14T10:38:31;10.45;;;8.27;;
22236;SDS011;11287;48.122;11.536;2023-05-14T10:40:59;11.88;;;8.05;;
22236;SDS011;11287;48.122;11.536;2023-05-14T10:43:26;12.10;;;8.70;;
22236;SDS011;11287;48.122;11.536;2023-05-14T10:45:56;11.63;;;9.27;;
22236;SDS011;11287;48.122;11.536;2023-05-14T10:48:22;14.25;;;9.48;;
22236;SDS011;11287;48.122;11.536;2023-05-14T10:50:51;11.25;;;9.32;;
22236;SDS011;11287;48.122;11.536;2023-05-14T10:53:17;11.25;;;9.43;;
22236;SDS011;11287;48.122;11.536;2023-05-14T10:55:43;12.70;;;9.05;;
22236;SDS011;11287;48.122;11.536;2023-05-14T10:58:11;11.70;;;9.50;;
22236;SDS011;11287;48.122;11.536;2023-05-14T11:00:37;12.43;;;9.15;;
22236;SDS011;11287;48.122;11.536;2023-05-14T11:03:04;11.80;;;8.77;;
22236;SDS011;11287;48.122;11.536;2023-05-14T11:05:31;11.05;;;8.20;;
22236;SDS011;11287;48.122;11.536;2023-05-14T11:07:57;10.40;;;8.18;;
22236;SDS011;11287;48.122;11.536;2023-05-14T11:10:23;11.32;;;8.88;;
22236;SDS011;11287;48.122;11.536;2023-05-14T11:12:55;10.40;;;8.00;;
22236;SDS011;11287;48.122;11.536;2023-05-14T11:15:21;11.55;;;8.55;;
22236;SDS011;11287;48.122;11.536;2023-05-14T11:17:48;10.65;;;8.05;;
22236;SDS011;11287;48.122;11.536;2023-05-14T11:20:14;11.13;;;8.68;;
22236;SDS011;11287;48.122;11.536;2023-05-14T11:22:41;10.10;;;7.53;;
22236;SDS011;11287;48.122;11.536;2023-05-14T11:25:07;9.45;;;7.90;;
22236;SDS011;11287;48.122;11.536;2023-05-14T11:27:34;10.18;;;7.50;;
22236;SDS011;11287;48.122;11.536;2023-05-14T11:30:00;9.23;;;7.47;;
22236;SDS011;11287;48.122;11.536;2023-05-14T11:32:26;8.45;;;7.47;;
22236;SDS011;11287;48.122;11.536;2023-05-14T11:34:51;9.02;;;7.97;;
22236;SDS011;11287;48.122;11.536;2023-05-14T11:37:16;8.02;;;7.03;;
22236;SDS011;11287;48.122;11.536;2023-05-14T11:39:49;8.55;;;6.95;;
22236;SDS011;11287;48.122;11.536;2023-05-14T11:42:16;9.52;;;7.20;;
22236;SDS011;11287;48.122;11.536;2023-05-14T11:44:44;7.35;;;6.32;;
22236;SDS011;11287;48.122;11.536;2023-05-14T11:47:11;8.52;;;6.97;;
22236;SDS011;11287;48.122;11.536;2023-05-14T11:49:36;7.28;;;6.57;;
22236;SDS011;11287;48.122;11.536;2023-05-14T11:52:05;11.02;;;6.78;;
22236;SDS011;11287;48.122;11.536;2023-05-14T11:54:32;8.57;;;7.18;;
22236;SDS011;11287;48.122;11.536;2023-05-14T11:56:58;8.52;;;7.53;;
22236;SDS011;11287;48.122;11.536;2023-05-14T11:59:35;8.02;;;6.50;;
22236;SDS011;11287;48.122;11.536;2023-05-14T12:02:01;8.55;;;6.55;;
22236;SDS011;11287;48.122;11.536;2023-05-14T12:04:27;6.10;;;5.50;;
22236;SDS011;11287;48.122;11.536;2023-05-14T12:06:52;6.93;;;6.18;;
22236;SDS011;11287;48.122;11.536;2023-05-14T12:09:19;15.85;;;12.52;;
22236;SDS011;11287;48.122;11.536;2023-05-14T12:11:45;7.85;;;6.78;;
22236;SDS011;11287;48.122;11.536;2023-05-14T12:14:13;6.35;;;5.45;;
22236;SDS011;11287;48.122;11.536;2023-05-14T12:16:39;6.68;;;5.38;;
22236;SDS011;11287;48.122;11.536;2023-05-14T12:19:07;6.93;;;5.65;;
22236;SDS011;11287;48.122;11.536;2023-05-14T12:21:34;6.40;;;5.70;;
22236;SDS011;11287;48.122;11.536;2023-05-14T12:23:59;7.05;;;5.72;;
22236;SDS011;11287;48.122;11.536;2023-05-14T12:26:24;6.00;;;5.40;;
22236;SDS011;11287;48.122;11.536;2023-05-14T12:28:55;5.88;;;5.22;;
22236;SDS011;11287;48.122;11.536;2023-05-14T12:31:28;5.65;;;5.15;;
22236;SDS011;11287;48.122;11.536;2023-05-14T12:33:54;6.13;;;5.53;;
22236;SDS011;11287;48.122;11.536;2023-05-14T12:36:19;6.60;;;6.00;;
22236;SDS011;11287;48.122;11.536;2023-05-14T12:38:45;6.50;;;5.90;;
22236;SDS011;11287;48.122;11.536;2023-05-14T12:41:10;6.38;;;5.40;;
22236;SDS011;11287;48.122;11.536;2023-05-14T12:43:35;5.57;;;5.07;;
22236;SDS011;11287;48.122;11.536;2023-05-14T12:46:00;6.00;;;5.32;;
22236;SDS011;11287;48.122;11.536;2023-05-14T12:48:26;5.15;;;4.65;;
22236;SDS011;11287;48.122;11.536;2023-05-14T12:50:51;6.05;;;5.45;;
22236;SDS011;11287;48.122;11.536;2023-05-14T12:53:17;6.13;;;5.53;;
22236;SDS011;11287;48.122;11.536;2023-05-14T12:55:42;6.50;;;5.78;;
22236;SDS011;11287;48.122;11.536;2023-05-14T12:58:07;6.93;;;6.18;;
22236;SDS011;11287;48.122;11.536;2023-05-14T13:00:33;8.95;;;6.97;;
22236;SDS011;11287;48.122;11.536;2023-05-14T13:02:58;6.68;;;5.35;;
22236;SDS011;11287;48.122;11.536;2023-05-14T13:05:23;5.90;;;5.30;;
22236;SDS011;11287;48.122;11.536;2023-05-14T13:07:50;6.57;;;5.50;;
22236;SDS011;11287;48.122;11.536;2023-05-14T13:10:16;6.40;;;5.80;;
22236;SDS011;11287;48.122;11.536;2023-05-14T13:12:43;6.47;;;4.90;;
22236;SDS011;11287;48.122;11.536;2023-05-14T13:15:09;6.13;;;5.35;;
22236;SDS011;11287;48.122;11.536;2023-05-14T13:17:34;5.85;;;5.13;;
22236;SDS011;11287;48.122;11.536;2023-05-14T13:20:00;8.48;;;5.75;;
22236;SDS011;11287;48.122;11.536;2023-05-14T13:22:25;6.32;;;5.43;;
22236;SDS011;11287;48.122;11.536;2023-05-14T13:24:50;5.50;;;5.00;;
22236;SDS011;11287;48.122;11.536;2023-05-14T13:27:16;5.55;;;5.05;;
22236;SDS011;11287;48.122;11.536;2023-05-14T13:29:41;6.85;;;6.13;;
22236;SDS011;11287;48.122;11.536;2023-05-14T13:34:36;5.68;;;5.18;;
22236;SDS011;11287;48.122;11.536;2023-05-14T13:37:15;5.50;;;4.97;;
22236;SDS011;11287;48.122;11.536;2023-05-14T13:42:10;4.78;;;4.30;;
22236;SDS011;11287;48.122;11.536;2023-05-14T13:44:35;4.43;;;4.03;;
22236;SDS011;11287;48.122;11.536;2023-05-14T13:47:01;4.75;;;4.30;;
22236;SDS011;11287;48.122;11.536;2023-05-14T13:49:26;4.30;;;3.90;;
22236;SDS011;11287;48.122;11.536;2023-05-14T13:51:51;5.32;;;4.22;;
22236;SDS011;11287;48.122;11.536;2023-05-14T13:57:03;2.90;;;2.70;;
22236;SDS011;11287;48.122;11.536;2023-05-14T13:59:30;4.50;;;4.20;;
22236;SDS011;11287;48.122;11.536;2023-05-14T14:01:55;4.13;;;3.72;;
22236;SDS011;11287;48.122;11.536;2023-05-14T14:04:20;5.22;;;4.72;;
22236;SDS011;11287;48.122;11.536;2023-05-14T14:06:46;5.60;;;5.03;;
22236;SDS011;11287;48.122;11.536;2023-05-14T14:09:11;4.88;;;4.47;;
22236;SDS011;11287;48.122;11.536;2023-05-14T14:11:37;4.85;;;4.10;;
22236;SDS011;11287;48.122;11.536;2023-05-14T14:14:04;5.72;;;3.83;;
22236;SDS011;11287;48.122;11.536;2023-05-14T14:16:29;4.57;;;3.80;;
22236;SDS011;11287;48.122;11.536;2023-05-14T14:18:55;5.47;;;3.95;;
22236;SDS011;11287;48.122;11.536;2023-05-14T14:21:21;5.28;;;3.40;;
22236;SDS011;11287;48.122;11.536;2023-05-14T14:23:46;3.63;;;3.33;;
22236;SDS011;11287;48.122;11.536;2023-05-14T14:26:12;3.50;;;3.20;;